sensor_id;sensor_type;location;lat;lon;timestamp;pressure;altitude;pressure_sealevel;temperature;humidity
85462;BME280;75865;42.672;23.360;2024-02-26T00:02:21;94682.00;;;9.96;70.51
85462;BME280;75865;42.672;23.360;2024-02-26T00:04:48;94691.06;;;9.98;70.38
85462;BME280;75865;42.672;23.360;2024-02-26T00:07:16;94690.31;;;9.98;70.41
85462;BME280;75865;42.672;23.360;2024-02-26T00:09:42;94683.47;;;10.00;70.62
85462;BME280;75865;42.672;23.360;2024-02-26T00:12:09;94678.16;;;10.00;70.40
85462;BME280;75865;42.672;23.360;2024-02-26T00:14:36;94672.47;;;10.02;70.77
85462;BME280;75865;42.672;23.360;2024-02-26T00:17:03;94669.09;;;9.98;70.58
85462;BME280;75865;42.672;23.360;2024-02-26T00:19:30;94690.28;;;10.01;70.75
85462;BME280;75865;42.672;23.360;2024-02-26T00:21:56;94687.22;;;10.03;70.63
85462;BME280;75865;42.672;23.360;2024-02-26T00:24:23;94682.66;;;10.03;70.50
85462;BME280;75865;42.672;23.360;2024-02-26T00:26:50;94674.69;;;10.03;70.53
85462;BME280;75865;42.672;23.360;2024-02-26T00:29:21;94672.78;;;10.04;70.79
85462;BME280;75865;42.672;23.360;2024-02-26T00:31:48;94671.31;;;10.03;70.55
85462;BME280;75865;42.672;23.360;2024-02-26T00:34:15;94667.44;;;10.07;70.69
85462;BME280;75865;42.672;23.360;2024-02-26T00:36:42;94667.81;;;10.09;70.65
85462;BME280;75865;42.672;23.360;2024-02-26T00:39:09;94658.72;;;10.10;70.87
85462;BME280;75865;42.672;23.360;2024-02-26T00:41:40;94661.31;;;10.14;70.76
85462;BME280;75865;42.672;23.360;2024-02-26T00:44:07;94663.22;;;10.13;70.25
85462;BME280;75865;42.672;23.360;2024-02-26T00:46:34;94653.81;;;10.09;70.23
85462;BME280;75865;42.672;23.360;2024-02-26T00:49:00;94653.03;;;10.08;70.49
85462;BME280;75865;42.672;23.360;2024-02-26T00:51:28;94647.75;;;10.08;70.69
85462;BME280;75865;42.672;23.360;2024-02-26T00:53:55;94637.50;;;10.10;70.46
85462;BME280;75865;42.672;23.360;2024-02-26T00:56:22;94647.72;;;10.12;70.41
85462;BME280;75865;42.672;23.360;2024-02-26T00:58:49;94644.66;;;10.13;70.54
85462;BME280;75865;42.672;23.360;2024-02-26T01:01:15;94640.09;;;10.14;69.96
85462;BME280;75865;42.672;23.360;2024-02-26T01:03:42;94631.84;;;10.08;69.86
85462;BME280;75865;42.672;23.360;2024-02-26T01:06:10;94640.16;;;10.10;69.82
85462;BME280;75865;42.672;23.360;2024-02-26T01:08:36;94637.88;;;10.09;69.81
85462;BME280;75865;42.672;23.360;2024-02-26T01:11:04;94637.53;;;10.07;69.83
85462;BME280;75865;42.672;23.360;2024-02-26T01:13:31;94634.53;;;10.05;70.19
85462;BME280;75865;42.672;23.360;2024-02-26T01:15:57;94635.59;;;10.11;70.23
85462;BME280;75865;42.672;23.360;2024-02-26T01:18:24;94638.53;;;10.17;70.28
85462;BME280;75865;42.672;23.360;2024-02-26T01:20:51;94631.72;;;10.15;70.17
85462;BME280;75865;42.672;23.360;2024-02-26T01:23:21;94636.97;;;10.23;70.08
85462;BME280;75865;42.672;23.360;2024-02-26T01:25:47;94636.19;;;10.26;70.05
85462;BME280;75865;42.672;23.360;2024-02-26T01:28:16;94630.06;;;10.29;70.12
85462;BME280;75865;42.672;23.360;2024-02-26T01:30:43;94630.03;;;10.32;69.96
85462;BME280;75865;42.672;23.360;2024-02-26T01:33:10;94633.03;;;10.34;70.07
85462;BME280;75865;42.672;23.360;2024-02-26T01:35:37;94627.72;;;10.34;69.97
85462;BME280;75865;42.672;23.360;2024-02-26T01:38:04;94624.69;;;10.36;70.15
85462;BME280;75865;42.672;23.360;2024-02-26T01:40:30;94631.47;;;10.37;70.08
85462;BME280;75865;42.672;23.360;2024-02-26T01:42:57;94622.38;;;10.38;69.96
85462;BME280;75865;42.672;23.360;2024-02-26T01:45:25;94623.56;;;10.33;70.15
85462;BME280;75865;42.672;23.360;2024-02-26T01:47:52;94625.13;;;10.31;70.30
85462;BME280;75865;42.672;23.360;2024-02-26T01:50:20;94620.16;;;10.33;70.32
85462;BME280;75865;42.672;23.360;2024-02-26T01:52:50;94613.34;;;10.32;70.66
85462;BME280;75865;42.672;23.360;2024-02-26T01:55:20;94622.03;;;10.36;70.31
85462;BME280;75865;42.672;23.360;2024-02-26T01:57:50;94618.16;;;10.40;70.82
85462;BME280;75865;42.672;23.360;2024-02-26T02:00:18;94611.75;;;10.38;70.30
85462;BME280;75865;42.672;23.360;2024-02-26T02:02:47;94610.94;;;10.41;70.29
85462;BME280;75865;42.672;23.360;2024-02-26T02:05:16;94610.25;;;10.37;70.17
85462;BME280;75865;42.672;23.360;2024-02-26T02:07:45;94607.13;;;10.42;70.18
85462;BME280;75865;42.672;23.360;2024-02-26T02:10:15;94611.69;;;10.41;70.12
85462;BME280;75865;42.672;23.360;2024-02-26T02:12:43;94612.78;;;10.44;70.14
85462;BME280;75865;42.672;23.360;2024-02-26T02:15:10;94610.91;;;10.44;70.31
85462;BME280;75865;42.672;23.360;2024-02-26T02:17:37;94602.19;;;10.44;69.74
85462;BME280;75865;42.672;23.360;2024-02-26T02:20:05;94612.78;;;10.44;69.95
85462;BME280;75865;42.672;23.360;2024-02-26T02:22:34;94613.53;;;10.44;69.74
85462;BME280;75865;42.672;23.360;2024-02-26T02:25:00;94617.00;;;10.41;69.92
85462;BME280;75865;42.672;23.360;2024-02-26T02:27:28;94613.66;;;10.37;69.94
85462;BME280;75865;42.672;23.360;2024-02-26T02:29:55;94610.69;;;10.32;70.13
85462;BME280;75865;42.672;23.360;2024-02-26T02:32:23;94611.50;;;10.29;70.42
85462;BME280;75865;42.672;23.360;2024-02-26T02:34:51;94612.66;;;10.28;70.38
85462;BME280;75865;42.672;23.360;2024-02-26T02:37:18;94612.25;;;10.29;70.36
85462;BME280;75865;42.672;23.360;2024-02-26T02:39:44;94612.59;;;10.31;70.27
85462;BME280;75865;42.672;23.360;2024-02-26T02:42:12;94607.28;;;10.31;70.61
85462;BME280;75865;42.672;23.360;2024-02-26T02:44:39;94614.91;;;10.29;70.53
85462;BME280;75865;42.672;23.360;2024-02-26T02:47:06;94607.81;;;10.23;70.45
85462;BME280;75865;42.672;23.360;2024-02-26T02:49:33;94603.72;;;10.14;70.60
85462;BME280;75865;42.672;23.360;2024-02-26T02:52:00;94605.91;;;10.23;70.54
85462;BME280;75865;42.672;23.360;2024-02-26T02:54:27;94617.56;;;10.29;70.73
85462;BME280;75865;42.672;23.360;2024-02-26T02:56:54;94618.31;;;10.30;70.84
85462;BME280;75865;42.672;23.360;2024-02-26T02:59:21;94622.03;;;10.36;70.48
85462;BME280;75865;42.672;23.360;2024-02-26T03:01:48;94623.84;;;10.39;70.39
85462;BME280;75865;42.672;23.360;2024-02-26T03:04:14;94620.81;;;10.40;70.66
85462;BME280;75865;42.672;23.360;2024-02-26T03:06:41;94610.25;;;10.37;70.59
85462;BME280;75865;42.672;23.360;2024-02-26T03:09:08;94623.13;;;10.38;70.55
85462;BME280;75865;42.672;23.360;2024-02-26T03:11:35;94634.78;;;10.44;70.39
85462;BME280;75865;42.672;23.360;2024-02-26T03:14:02;94637.06;;;10.42;70.31
85462;BME280;75865;42.672;23.360;2024-02-26T03:16:29;94629.88;;;10.43;69.96
85462;BME280;75865;42.672;23.360;2024-02-26T03:18:55;94626.81;;;10.44;70.09
85462;BME280;75865;42.672;23.360;2024-02-26T03:21:25;94622.63;;;10.47;70.47
85462;BME280;75865;42.672;23.360;2024-02-26T03:23:51;94615.81;;;10.46;70.12
85462;BME280;75865;42.672;23.360;2024-02-26T03:26:18;94614.66;;;10.47;70.11
85462;BME280;75865;42.672;23.360;2024-02-26T03:28:45;94612.34;;;10.49;69.99
85462;BME280;75865;42.672;23.360;2024-02-26T03:31:12;94603.25;;;10.50;70.14
85462;BME280;75865;42.672;23.360;2024-02-26T03:33:39;94606.97;;;10.53;69.85
85462;BME280;75865;42.672;23.360;2024-02-26T03:36:06;94607.38;;;10.51;70.34
85462;BME280;75865;42.672;23.360;2024-02-26T03:38:34;94605.91;;;10.50;70.29
85462;BME280;75865;42.672;23.360;2024-02-26T03:41:00;94610.09;;;10.47;70.36
85462;BME280;75865;42.672;23.360;2024-02-26T03:43:27;94604.38;;;10.49;70.33
85462;BME280;75865;42.672;23.360;2024-02-26T03:45:54;94601.75;;;10.49;70.33
85462;BME280;75865;42.672;23.360;2024-02-26T03:48:21;94603.63;;;10.48;69.97
85462;BME280;75865;42.672;23.360;2024-02-26T03:50:48;94605.53;;;10.48;70.21
85462;BME280;75865;42.672;23.360;2024-02-26T03:53:14;94598.72;;;10.47;70.04
85462;BME280;75865;42.672;23.360;2024-02-26T03:55:41;94605.59;;;10.44;70.23
85462;BME280;75865;42.672;23.360;2024-02-26T03:58:09;94601.91;;;10.38;69.91
85462;BME280;75865;42.672;23.360;2024-02-26T04:00:36;94597.41;;;10.35;70.04
85462;BME280;75865;42.672;23.360;2024-02-26T04:03:05;94597.44;;;10.32;69.97
85462;BME280;75865;42.672;23.360;2024-02-26T04:05:31;94593.78;;;10.22;70.24
85462;BME280;75865;42.672;23.360;2024-02-26T04:07:58;94589.88;;;10.30;70.43
85462;BME280;75865;42.672;23.360;2024-02-26T04:10:25;94590.66;;;10.27;70.73
85462;BME280;75865;42.672;23.360;2024-02-26T04:12:55;94594.50;;;10.26;70.56
85462;BME280;75865;42.672;23.360;2024-02-26T04:15:22;94589.59;;;10.25;70.20
85462;BME280;75865;42.672;23.360;2024-02-26T04:17:49;94582.09;;;10.20;70.62
85462;BME280;75865;42.672;23.360;2024-02-26T04:20:16;94580.88;;;10.24;70.34
85462;BME280;75865;42.672;23.360;2024-02-26T04:22:43;94581.63;;;10.25;70.78
85462;BME280;75865;42.672;23.360;2024-02-26T04:25:11;94587.28;;;10.27;70.13
85462;BME280;75865;42.672;23.360;2024-02-26T04:27:38;94589.59;;;10.25;70.30
85462;BME280;75865;42.672;23.360;2024-02-26T04:30:06;94583.19;;;10.22;70.23
85462;BME280;75865;42.672;23.360;2024-02-26T04:32:33;94571.09;;;10.18;70.20
85462;BME280;75865;42.672;23.360;2024-02-26T04:35:02;94576.47;;;10.14;70.26
85462;BME280;75865;42.672;23.360;2024-02-26T04:37:29;94580.94;;;10.17;70.54
85462;BME280;75865;42.672;23.360;2024-02-26T04:39:58;94585.50;;;10.17;70.38
85462;BME280;75865;42.672;23.360;2024-02-26T04:42:26;94589.66;;;10.18;70.20
85462;BME280;75865;42.672;23.360;2024-02-26T04:44:54;94593.53;;;10.13;70.13
85462;BME280;75865;42.672;23.360;2024-02-26T04:47:21;94587.50;;;10.09;69.91
85462;BME280;75865;42.672;23.360;2024-02-26T04:49:49;94589.06;;;10.06;70.28
85462;BME280;75865;42.672;23.360;2024-02-26T04:52:16;94579.66;;;10.02;69.94
85462;BME280;75865;42.672;23.360;2024-02-26T04:54:43;94597.75;;;10.07;69.61
85462;BME280;75865;42.672;23.360;2024-02-26T04:57:10;94589.44;;;10.05;69.71
85462;BME280;75865;42.672;23.360;2024-02-26T04:59:37;94586.41;;;10.06;69.53
85462;BME280;75865;42.672;23.360;2024-02-26T05:02:04;94572.16;;;9.97;69.68
85462;BME280;75865;42.672;23.360;2024-02-26T05:04:31;94599.38;;;10.01;69.38
85462;BME280;75865;42.672;23.360;2024-02-26T05:06:58;94607.47;;;9.90;69.74
85462;BME280;75865;42.672;23.360;2024-02-26T05:09:25;94600.28;;;9.91;70.17
85462;BME280;75865;42.672;23.360;2024-02-26T05:11:52;94611.25;;;9.89;70.14
85462;BME280;75865;42.672;23.360;2024-02-26T05:14:19;94606.41;;;9.84;70.23
85462;BME280;75865;42.672;23.360;2024-02-26T05:16:46;94619.22;;;9.89;69.97
85462;BME280;75865;42.672;23.360;2024-02-26T05:19:13;94620.00;;;9.86;70.25
85462;BME280;75865;42.672;23.360;2024-02-26T05:21:41;94630.91;;;9.92;70.16
85462;BME280;75865;42.672;23.360;2024-02-26T05:24:09;94630.50;;;9.93;69.88
85462;BME280;75865;42.672;23.360;2024-02-26T05:26:36;94631.63;;;9.96;69.98
85462;BME280;75865;42.672;23.360;2024-02-26T05:29:02;94635.03;;;9.96;69.89
85462;BME280;75865;42.672;23.360;2024-02-26T05:31:29;94638.03;;;9.98;70.16
85462;BME280;75865;42.672;23.360;2024-02-26T05:33:56;94633.47;;;9.99;70.11
85462;BME280;75865;42.672;23.360;2024-02-26T05:36:23;94644.81;;;10.03;69.82
85462;BME280;75865;42.672;23.360;2024-02-26T05:38:51;94646.63;;;10.06;69.72
85462;BME280;75865;42.672;23.360;2024-02-26T05:41:18;94646.97;;;10.11;70.04
85462;BME280;75865;42.672;23.360;2024-02-26T05:43:53;94643.91;;;10.13;70.00
85462;BME280;75865;42.672;23.360;2024-02-26T05:46:20;94657.91;;;10.13;69.39
85462;BME280;75865;42.672;23.360;2024-02-26T05:48:50;94654.50;;;10.13;69.88
85462;BME280;75865;42.672;23.360;2024-02-26T05:51:17;94649.59;;;10.11;69.71
85462;BME280;75865;42.672;23.360;2024-02-26T05:53:44;94656.72;;;10.18;69.71
85462;BME280;75865;42.672;23.360;2024-02-26T05:56:13;94653.69;;;10.20;69.89
85462;BME280;75865;42.672;23.360;2024-02-26T05:58:40;94651.75;;;10.24;69.78
85462;BME280;75865;42.672;23.360;2024-02-26T06:01:07;94656.31;;;10.23;69.52
85462;BME280;75865;42.672;23.360;2024-02-26T06:03:34;94652.84;;;10.26;69.93
85462;BME280;75865;42.672;23.360;2024-02-26T06:06:01;94659.31;;;10.25;70.11
85462;BME280;75865;42.672;23.360;2024-02-26T06:08:28;94663.75;;;10.32;69.99
85462;BME280;75865;42.672;23.360;2024-02-26T06:10:55;94672.44;;;10.36;69.63
85462;BME280;75865;42.672;23.360;2024-02-26T06:13:22;94668.94;;;10.39;69.60
85462;BME280;75865;42.672;23.360;2024-02-26T06:15:49;94667.81;;;10.40;69.53
85462;BME280;75865;42.672;23.360;2024-02-26T06:18:15;94678.03;;;10.41;69.26
85462;BME280;75865;42.672;23.360;2024-02-26T06:20:42;94677.63;;;10.43;69.53
85462;BME280;75865;42.672;23.360;2024-02-26T06:23:09;94674.53;;;10.48;69.37
85462;BME280;75865;42.672;23.360;2024-02-26T06:25:36;94669.63;;;10.46;69.56
85462;BME280;75865;42.672;23.360;2024-02-26T06:28:03;94674.06;;;10.53;69.38
85462;BME280;75865;42.672;23.360;2024-02-26T06:30:31;94673.72;;;10.51;69.37
85462;BME280;75865;42.672;23.360;2024-02-26T06:32:57;94678.97;;;10.55;69.39
85462;BME280;75865;42.672;23.360;2024-02-26T06:35:24;94662.66;;;10.56;69.08
85462;BME280;75865;42.672;23.360;2024-02-26T06:37:51;94674.31;;;10.62;69.21
85462;BME280;75865;42.672;23.360;2024-02-26T06:40:19;94675.00;;;10.66;69.20
85462;BME280;75865;42.672;23.360;2024-02-26T06:42:46;94674.56;;;10.71;69.01
85462;BME280;75865;42.672;23.360;2024-02-26T06:45:15;94673.75;;;10.74;69.05
85462;BME280;75865;42.672;23.360;2024-02-26T06:47:42;94672.53;;;10.79;68.45
85462;BME280;75865;42.672;23.360;2024-02-26T06:50:11;94675.16;;;10.82;68.69
85462;BME280;75865;42.672;23.360;2024-02-26T06:52:39;94671.69;;;10.85;68.36
85462;BME280;75865;42.672;23.360;2024-02-26T06:55:06;94667.47;;;10.88;68.33
85462;BME280;75865;42.672;23.360;2024-02-26T06:57:35;94672.38;;;10.90;68.12
85462;BME280;75865;42.672;23.360;2024-02-26T07:00:02;94673.84;;;10.94;68.17
85462;BME280;75865;42.672;23.360;2024-02-26T07:02:31;94672.28;;;10.97;67.65
85462;BME280;75865;42.672;23.360;2024-02-26T07:04:57;94670.69;;;10.99;67.81
85462;BME280;75865;42.672;23.360;2024-02-26T07:07:25;94685.84;;;11.02;67.64
85462;BME280;75865;42.672;23.360;2024-02-26T07:09:52;94675.91;;;11.06;67.45
85462;BME280;75865;42.672;23.360;2024-02-26T07:12:18;94674.00;;;11.07;67.44
85462;BME280;75865;42.672;23.360;2024-02-26T07:14:48;94681.84;;;11.14;67.42
85462;BME280;75865;42.672;23.360;2024-02-26T07:17:16;94683.75;;;11.13;67.42
85462;BME280;75865;42.672;23.360;2024-02-26T07:19:42;94684.91;;;11.12;66.89
85462;BME280;75865;42.672;23.360;2024-02-26T07:22:09;94689.47;;;11.12;66.72
85462;BME280;75865;42.672;23.360;2024-02-26T07:24:36;94673.75;;;10.98;67.00
85462;BME280;75865;42.672;23.360;2024-02-26T07:27:03;94686.47;;;11.10;66.79
85462;BME280;75865;42.672;23.360;2024-02-26T07:29:30;94686.47;;;11.10;66.31
85462;BME280;75865;42.672;23.360;2024-02-26T07:31:58;94690.53;;;11.18;66.48
85462;BME280;75865;42.672;23.360;2024-02-26T07:34:24;94685.44;;;11.27;67.05
85462;BME280;75865;42.672;23.360;2024-02-26T07:36:56;94689.84;;;11.34;66.56
85462;BME280;75865;42.672;23.360;2024-02-26T07:39:23;94687.56;;;11.36;66.53
85462;BME280;75865;42.672;23.360;2024-02-26T07:41:50;94678.06;;;11.35;66.78
85462;BME280;75865;42.672;23.360;2024-02-26T07:44:19;94696.44;;;11.49;66.98
85462;BME280;75865;42.672;23.360;2024-02-26T07:46:47;94705.03;;;11.56;66.57
85462;BME280;75865;42.672;23.360;2024-02-26T07:49:14;94699.19;;;11.65;66.38
85462;BME280;75865;42.672;23.360;2024-02-26T07:51:41;94698.31;;;11.72;66.54
85462;BME280;75865;42.672;23.360;2024-02-26T07:54:08;94671.47;;;11.66;65.94
85462;BME280;75865;42.672;23.360;2024-02-26T07:56:35;94697.06;;;11.80;65.98
85462;BME280;75865;42.672;23.360;2024-02-26T07:59:02;94687.50;;;11.82;66.14
85462;BME280;75865;42.672;23.360;2024-02-26T08:01:29;94694.84;;;11.94;65.92
85462;BME280;75865;42.672;23.360;2024-02-26T08:03:56;94683.41;;;11.98;65.49
85462;BME280;75865;42.672;23.360;2024-02-26T08:06:23;94681.44;;;12.02;65.67
85462;BME280;75865;42.672;23.360;2024-02-26T08:08:50;94689.19;;;12.12;65.50
85462;BME280;75865;42.672;23.360;2024-02-26T08:11:17;94681.28;;;12.09;65.17
85462;BME280;75865;42.672;23.360;2024-02-26T08:13:44;94684.22;;;12.14;65.10
85462;BME280;75865;42.672;23.360;2024-02-26T08:16:11;94689.38;;;12.21;65.14
85462;BME280;75865;42.672;23.360;2024-02-26T08:18:38;94682.00;;;12.29;65.50
85462;BME280;75865;42.672;23.360;2024-02-26T08:21:05;94676.44;;;12.40;65.17
85462;BME280;75865;42.672;23.360;2024-02-26T08:23:32;94685.47;;;12.46;65.65
85462;BME280;75865;42.672;23.360;2024-02-26T08:25:59;94686.78;;;12.54;65.19
85462;BME280;75865;42.672;23.360;2024-02-26T08:28:26;94685.81;;;12.64;64.56
85462;BME280;75865;42.672;23.360;2024-02-26T08:30:52;94690.31;;;12.67;63.80
85462;BME280;75865;42.672;23.360;2024-02-26T08:33:19;94679.59;;;12.71;64.28
85462;BME280;75865;42.672;23.360;2024-02-26T08:35:46;94688.50;;;12.80;64.53
85462;BME280;75865;42.672;23.360;2024-02-26T08:38:13;94691.25;;;12.93;63.37
85462;BME280;75865;42.672;23.360;2024-02-26T08:40:41;94680.19;;;12.94;62.68
85462;BME280;75865;42.672;23.360;2024-02-26T08:43:08;94678.91;;;12.99;61.55
85462;BME280;75865;42.672;23.360;2024-02-26T08:45:36;94673.91;;;13.01;60.71
85462;BME280;75865;42.672;23.360;2024-02-26T08:48:04;94668.84;;;13.07;61.28
85462;BME280;75865;42.672;23.360;2024-02-26T08:50:31;94675.13;;;13.16;61.76
85462;BME280;75865;42.672;23.360;2024-02-26T08:52:57;94676.00;;;13.26;61.80
85462;BME280;75865;42.672;23.360;2024-02-26T08:55:25;94672.09;;;13.30;61.59
85462;BME280;75865;42.672;23.360;2024-02-26T08:57:52;94670.34;;;13.40;61.24
85462;BME280;75865;42.672;23.360;2024-02-26T09:00:18;94681.47;;;13.51;60.38
85462;BME280;75865;42.672;23.360;2024-02-26T09:02:48;94681.81;;;13.53;59.68
85462;BME280;75865;42.672;23.360;2024-02-26T09:05:16;94673.47;;;13.51;59.56
85462;BME280;75865;42.672;23.360;2024-02-26T09:07:43;94673.47;;;13.51;59.73
85462;BME280;75865;42.672;23.360;2024-02-26T09:10:10;94668.47;;;13.53;60.05
85462;BME280;75865;42.672;23.360;2024-02-26T09:12:37;94663.28;;;13.62;58.83
85462;BME280;75865;42.672;23.360;2024-02-26T09:15:06;94667.44;;;13.63;58.90
85462;BME280;75865;42.672;23.360;2024-02-26T09:17:33;94673.66;;;13.73;58.92
85462;BME280;75865;42.672;23.360;2024-02-26T09:20:02;94665.03;;;13.82;58.44
85462;BME280;75865;42.672;23.360;2024-02-26T09:22:29;94659.53;;;13.89;58.35
85462;BME280;75865;42.672;23.360;2024-02-26T09:24:55;94663.31;;;14.04;58.37
85462;BME280;75865;42.672;23.360;2024-02-26T09:27:22;94661.38;;;14.17;57.32
85462;BME280;75865;42.672;23.360;2024-02-26T09:29:50;94642.91;;;14.10;56.99
85462;BME280;75865;42.672;23.360;2024-02-26T09:32:17;94656.81;;;14.30;56.29
85462;BME280;75865;42.672;23.360;2024-02-26T09:34:44;94653.28;;;14.33;55.95
85462;BME280;75865;42.672;23.360;2024-02-26T09:37:11;94653.19;;;14.37;56.23
85462;BME280;75865;42.672;23.360;2024-02-26T09:39:47;94664.53;;;14.41;56.05
85462;BME280;75865;42.672;23.360;2024-02-26T09:42:18;94645.28;;;14.33;55.36
85462;BME280;75865;42.672;23.360;2024-02-26T09:44:46;94657.03;;;14.36;56.05
85462;BME280;75865;42.672;23.360;2024-02-26T09:47:14;94648.78;;;14.30;54.54
85462;BME280;75865;42.672;23.360;2024-02-26T09:49:43;94640.47;;;14.28;55.23
85462;BME280;75865;42.672;23.360;2024-02-26T09:52:11;94653.53;;;14.39;55.03
85462;BME280;75865;42.672;23.360;2024-02-26T09:54:38;94653.53;;;14.52;55.08
85462;BME280;75865;42.672;23.360;2024-02-26T09:57:09;94645.97;;;14.63;54.35
85462;BME280;75865;42.672;23.360;2024-02-26T09:59:42;94644.22;;;14.81;54.29
85462;BME280;75865;42.672;23.360;2024-02-26T10:02:13;94643.03;;;14.95;53.75
85462;BME280;75865;42.672;23.360;2024-02-26T10:04:41;94643.22;;;15.01;52.66
85462;BME280;75865;42.672;23.360;2024-02-26T10:07:12;94641.53;;;14.94;52.67
85462;BME280;75865;42.672;23.360;2024-02-26T10:09:40;94632.53;;;15.01;52.74
85462;BME280;75865;42.672;23.360;2024-02-26T10:12:10;94636.25;;;15.16;51.97
85462;BME280;75865;42.672;23.360;2024-02-26T10:14:37;94635.06;;;15.17;52.35
85462;BME280;75865;42.672;23.360;2024-02-26T10:17:07;94632.59;;;15.23;52.30
85462;BME280;75865;42.672;23.360;2024-02-26T10:19:35;94631.97;;;15.18;51.16
85462;BME280;75865;42.672;23.360;2024-02-26T10:22:04;94629.88;;;15.01;51.42
85462;BME280;75865;42.672;23.360;2024-02-26T10:24:31;94628.50;;;14.96;51.73
85462;BME280;75865;42.672;23.360;2024-02-26T10:26:58;94630.94;;;15.03;51.76
85462;BME280;75865;42.672;23.360;2024-02-26T10:29:25;94623.44;;;15.11;51.34
85462;BME280;75865;42.672;23.360;2024-02-26T10:31:52;94628.03;;;15.10;51.54
85462;BME280;75865;42.672;23.360;2024-02-26T10:34:20;94617.69;;;15.00;51.34
85462;BME280;75865;42.672;23.360;2024-02-26T10:36:47;94613.28;;;15.06;51.75
85462;BME280;75865;42.672;23.360;2024-02-26T10:39:20;94612.22;;;15.03;51.16
85462;BME280;75865;42.672;23.360;2024-02-26T10:41:48;94613.84;;;15.01;51.03
85462;BME280;75865;42.672;23.360;2024-02-26T10:44:15;94602.88;;;14.86;50.63
85462;BME280;75865;42.672;23.360;2024-02-26T10:46:47;94608.31;;;14.82;51.43
85462;BME280;75865;42.672;23.360;2024-02-26T10:49:16;94600.09;;;14.77;51.39
85462;BME280;75865;42.672;23.360;2024-02-26T10:51:53;94594.31;;;14.78;51.46
85462;BME280;75865;42.672;23.360;2024-02-26T10:54:21;94604.06;;;14.85;52.30
85462;BME280;75865;42.672;23.360;2024-02-26T10:56:50;94601.38;;;14.85;51.30
85462;BME280;75865;42.672;23.360;2024-02-26T10:59:18;94602.22;;;14.82;51.33
85462;BME280;75865;42.672;23.360;2024-02-26T11:01:50;94597.75;;;14.79;51.45
85462;BME280;75865;42.672;23.360;2024-02-26T11:04:18;94595.91;;;14.89;50.49
85462;BME280;75865;42.672;23.360;2024-02-26T11:06:46;94592.69;;;14.94;50.38
85462;BME280;75865;42.672;23.360;2024-02-26T11:09:15;94588.19;;;14.91;50.72
85462;BME280;75865;42.672;23.360;2024-02-26T11:11:42;94591.72;;;14.88;50.80
85462;BME280;75865;42.672;23.360;2024-02-26T11:14:09;94589.59;;;14.95;51.16
85462;BME280;75865;42.672;23.360;2024-02-26T11:16:38;94584.84;;;14.99;50.80
85462;BME280;75865;42.672;23.360;2024-02-26T11:19:06;94581.56;;;14.95;50.95
85462;BME280;75865;42.672;23.360;2024-02-26T11:21:35;94598.88;;;15.03;49.94
85462;BME280;75865;42.672;23.360;2024-02-26T11:24:09;94591.09;;;14.96;50.59
85462;BME280;75865;42.672;23.360;2024-02-26T11:26:47;94569.06;;;14.92;50.70
85462;BME280;75865;42.672;23.360;2024-02-26T11:29:21;94582.50;;;15.01;50.14
85462;BME280;75865;42.672;23.360;2024-02-26T11:31:48;94581.38;;;14.90;50.53
85462;BME280;75865;42.672;23.360;2024-02-26T11:34:16;94585.84;;;14.93;50.91
85462;BME280;75865;42.672;23.360;2024-02-26T11:36:45;94583.25;;;15.02;50.59
85462;BME280;75865;42.672;23.360;2024-02-26T11:39:12;94579.88;;;14.89;50.21
85462;BME280;75865;42.672;23.360;2024-02-26T11:41:43;94587.16;;;14.75;50.73
85462;BME280;75865;42.672;23.360;2024-02-26T11:44:10;94587.63;;;14.74;50.51
85462;BME280;75865;42.672;23.360;2024-02-26T11:46:41;94581.09;;;14.75;51.08
85462;BME280;75865;42.672;23.360;2024-02-26T11:51:55;94584.72;;;14.81;50.10
85462;BME280;75865;42.672;23.360;2024-02-26T11:54:51;94574.25;;;14.74;50.11
85462;BME280;75865;42.672;23.360;2024-02-26T11:59:48;94575.63;;;14.78;49.97
85462;BME280;75865;42.672;23.360;2024-02-26T12:02:38;94567.06;;;14.84;49.51
85462;BME280;75865;42.672;23.360;2024-02-26T12:05:15;94568.03;;;14.77;50.09
85462;BME280;75865;42.672;23.360;2024-02-26T12:08:04;94571.25;;;14.72;49.92
85462;BME280;75865;42.672;23.360;2024-02-26T12:10:38;94578.97;;;14.70;50.16
85462;BME280;75865;42.672;23.360;2024-02-26T12:13:14;94568.59;;;14.72;49.71
85462;BME280;75865;42.672;23.360;2024-02-26T12:18:18;94570.69;;;14.90;49.95
85462;BME280;75865;42.672;23.360;2024-02-26T12:20:45;94570.09;;;15.07;48.78
85462;BME280;75865;42.672;23.360;2024-02-26T12:23:17;94573.22;;;15.28;48.65
85462;BME280;75865;42.672;23.360;2024-02-26T12:25:43;94578.94;;;15.39;47.90
85462;BME280;75865;42.672;23.360;2024-02-26T12:28:10;94579.31;;;15.50;47.26
85462;BME280;75865;42.672;23.360;2024-02-26T12:30:37;94576.34;;;15.48;47.07
85462;BME280;75865;42.672;23.360;2024-02-26T12:33:04;94577.19;;;15.58;47.23
85462;BME280;75865;42.672;23.360;2024-02-26T12:35:31;94584.53;;;15.66;46.96
85462;BME280;75865;42.672;23.360;2024-02-26T12:37:59;94575.16;;;15.71;46.96
85462;BME280;75865;42.672;23.360;2024-02-26T12:40:26;94575.47;;;15.73;47.06
85462;BME280;75865;42.672;23.360;2024-02-26T12:42:54;94580.72;;;15.76;46.72
85462;BME280;75865;42.672;23.360;2024-02-26T12:45:21;94577.72;;;15.74;46.31
85462;BME280;75865;42.672;23.360;2024-02-26T12:47:48;94583.81;;;15.75;46.00
85462;BME280;75865;42.672;23.360;2024-02-26T12:50:16;94569.00;;;15.83;46.01
85462;BME280;75865;42.672;23.360;2024-02-26T12:52:45;94574.84;;;15.91;45.05
85462;BME280;75865;42.672;23.360;2024-02-26T12:55:17;94582.00;;;15.94;44.96
85462;BME280;75865;42.672;23.360;2024-02-26T12:57:45;94576.06;;;15.99;45.15
85462;BME280;75865;42.672;23.360;2024-02-26T13:00:14;94571.81;;;16.10;45.27
85462;BME280;75865;42.672;23.360;2024-02-26T13:02:42;94560.69;;;16.21;44.89